Tweets

Valley Met

taf

  • TAF EGOV 081349Z 0815/0819 26032G42KT 9999 FEW020 BKN045 PROB40 TEMPO 0815/0817 7000 SHRA BKN020CB TEMPO 0817/0819 7000 SHRA BKN020CB

Gallery

Expand all | Collapse all


Chris’s Daily Photo

Subscribe to:

FourFax Stats

  • Total Stats
    • 321 Posts
    • 159 Comments
    • 49 Comment Posters
    • 28 Links
    • 7 Post Categories
    • 4 Link Categories

Archives